createdAt,value
2018-07-05T00:00:43.060Z,93.30
2018-07-05T00:03:29.539Z,94.30
2018-07-05T00:06:16.113Z,93.20
2018-07-05T00:11:42.934Z,91.70
2018-07-05T00:14:29.373Z,94.40
2018-07-05T00:19:56.084Z,96.00
2018-07-05T00:22:42.363Z,96.00
2018-07-05T00:25:28.879Z,97.90
2018-07-05T00:28:15.403Z,99.30
2018-07-05T00:31:01.791Z,99.40
2018-07-05T00:33:48.414Z,99.00
2018-07-05T00:36:35.168Z,98.80
2018-07-05T00:42:01.826Z,98.50
2018-07-05T00:44:48.243Z,98.90
2018-07-05T00:47:34.767Z,98.30
2018-07-05T00:50:21.204Z,98.50
2018-07-05T00:53:07.688Z,98.20
2018-07-05T00:55:54.157Z,98.30
2018-07-05T00:58:40.840Z,97.90
2018-07-05T01:04:07.640Z,96.80
2018-07-05T01:06:54.048Z,95.60
2018-07-05T01:09:40.553Z,94.80
2018-07-05T01:12:27.094Z,95.40
2018-07-05T01:15:13.328Z,96.50
2018-07-05T01:17:59.842Z,98.00
2018-07-05T01:20:46.162Z,98.30
2018-07-05T01:23:32.647Z,98.50
2018-07-05T01:26:19.139Z,98.90
2018-07-05T01:29:05.424Z,99.10
2018-07-05T01:31:51.960Z,99.30
2018-07-05T01:34:38.446Z,99.60
2018-07-05T01:37:24.891Z,99.80
2018-07-05T01:40:11.341Z,99.90
2018-07-05T01:42:57.592Z,99.90
2018-07-05T01:45:44.034Z,99.90
2018-07-05T01:48:30.529Z,99.90
2018-07-05T01:53:57.209Z,99.90
2018-07-05T01:56:43.762Z,99.90
2018-07-05T01:59:30.236Z,99.90
2018-07-05T02:02:16.747Z,99.90
2018-07-05T02:05:03.218Z,99.90
2018-07-05T02:07:49.659Z,99.90
2018-07-05T02:10:36.072Z,99.90
2018-07-05T02:13:22.460Z,99.90
2018-07-05T02:16:08.718Z,99.90
2018-07-05T02:18:55.133Z,99.90
2018-07-05T02:21:41.544Z,99.90
2018-07-05T02:24:28.135Z,99.90
2018-07-05T02:27:14.552Z,99.90
2018-07-05T02:30:01.105Z,99.90
2018-07-05T02:35:27.820Z,99.90
2018-07-05T02:38:19.724Z,99.90
2018-07-05T02:41:06.213Z,99.90
2018-07-05T02:43:52.747Z,99.90
2018-07-05T02:46:39.145Z,99.90
2018-07-05T02:49:25.634Z,99.90
2018-07-05T02:52:11.967Z,99.90
2018-07-05T02:54:58.378Z,99.90
2018-07-05T02:57:44.945Z,99.90
2018-07-05T03:00:31.454Z,99.90
2018-07-05T03:03:17.844Z,99.90
2018-07-05T03:06:04.628Z,99.90
2018-07-05T03:08:50.993Z,99.90
2018-07-05T03:11:37.356Z,99.90
2018-07-05T03:14:23.578Z,99.90
2018-07-05T03:17:10.162Z,99.90
2018-07-05T03:19:56.443Z,99.90
2018-07-05T03:22:42.812Z,99.90
2018-07-05T03:25:29.246Z,99.90
2018-07-05T03:28:15.771Z,99.90
2018-07-05T03:31:02.233Z,99.90
2018-07-05T03:33:48.682Z,99.90
2018-07-05T03:36:35.208Z,99.90
2018-07-05T03:39:21.785Z,99.90
2018-07-05T03:42:08.399Z,99.90
2018-07-05T03:44:54.916Z,99.10
2018-07-05T03:47:41.288Z,99.20
2018-07-05T03:50:27.704Z,99.90
2018-07-05T03:53:14.129Z,99.60
2018-07-05T03:56:00.682Z,99.90
2018-07-05T03:58:47.140Z,99.90
2018-07-05T04:01:33.628Z,99.90
2018-07-05T04:04:20.170Z,99.90
2018-07-05T04:09:47.150Z,99.90
2018-07-05T04:12:33.457Z,99.90
2018-07-05T04:15:19.880Z,99.90
2018-07-05T04:18:06.433Z,99.90
2018-07-05T04:20:52.776Z,99.90
2018-07-05T04:23:39.176Z,99.90
2018-07-05T04:26:25.745Z,99.90
2018-07-05T04:31:52.226Z,99.90
2018-07-05T04:34:38.522Z,99.90
2018-07-05T04:37:24.922Z,99.90
2018-07-05T04:40:11.324Z,99.90
2018-07-05T04:42:57.748Z,99.90
2018-07-05T04:45:44.227Z,99.90
2018-07-05T04:48:30.768Z,99.90
2018-07-05T04:51:17.208Z,99.90
2018-07-05T04:54:03.597Z,99.90
2018-07-05T04:59:30.310Z,99.90
2018-07-05T05:02:17.112Z,99.90
2018-07-05T05:05:03.383Z,99.80
2018-07-05T05:07:51.312Z,97.70
2018-07-05T05:13:18.077Z,96.80
2018-07-05T05:16:04.610Z,96.60
2018-07-05T05:18:50.966Z,96.40
2018-07-05T05:21:37.540Z,96.50
2018-07-05T05:24:23.926Z,96.60
2018-07-05T05:27:10.333Z,96.60
2018-07-05T05:29:56.837Z,96.60
2018-07-05T05:32:43.143Z,96.50
2018-07-05T05:35:29.328Z,96.30
2018-07-05T05:38:15.797Z,96.00
2018-07-05T05:41:02.136Z,94.00
2018-07-05T05:43:48.681Z,94.80
2018-07-05T05:46:34.990Z,94.90
2018-07-05T05:49:21.247Z,92.30
2018-07-05T05:52:07.522Z,91.90
2018-07-05T05:54:53.929Z,86.80
2018-07-05T05:57:40.340Z,76.90
2018-07-05T06:00:26.979Z,68.00
2018-07-05T06:03:13.364Z,67.70
2018-07-05T06:05:59.727Z,58.40
2018-07-05T06:08:46.068Z,54.90
2018-07-05T06:11:32.575Z,54.80
2018-07-05T06:16:59.321Z,35.20
2018-07-05T06:19:45.724Z,27.40
2018-07-05T06:22:32.016Z,22.90
2018-07-05T06:25:18.597Z,8.20
2018-07-05T06:28:04.916Z,9.80
2018-07-05T06:30:51.213Z,5.80
2018-07-05T06:33:37.760Z,1.00
2018-07-05T06:39:05.854Z,5.80
2018-07-05T06:41:52.463Z,1.70
2018-07-05T06:44:38.891Z,2.00
2018-07-05T06:47:25.140Z,7.80
2018-07-05T06:50:11.406Z,12.30
2018-07-05T06:52:57.714Z,1.00
2018-07-05T06:55:44.089Z,1.00
2018-07-05T06:58:30.390Z,99.90
2018-07-05T07:01:16.929Z,1.00
2018-07-05T07:04:03.177Z,99.90
2018-07-05T07:06:49.505Z,99.90
2018-07-05T07:09:35.887Z,99.90
2018-07-05T07:12:22.276Z,99.90
2018-07-05T07:15:08.626Z,99.90
2018-07-05T07:17:54.841Z,99.90
2018-07-05T07:20:41.153Z,99.90
2018-07-05T07:23:27.447Z,99.90
2018-07-05T07:26:13.717Z,99.90
2018-07-05T07:28:59.979Z,99.90
2018-07-05T07:31:46.230Z,99.90
2018-07-05T07:34:32.499Z,99.90
2018-07-05T07:37:18.913Z,99.90
2018-07-05T07:40:05.285Z,99.90
2018-07-05T07:42:32.948Z,99.90
2018-07-05T07:45:00.624Z,99.90
2018-07-05T07:47:28.287Z,99.90
2018-07-05T07:49:55.959Z,99.90
2018-07-05T07:52:23.619Z,99.90
2018-07-05T07:54:51.297Z,99.90
2018-07-05T07:57:18.968Z,99.90
2018-07-05T07:59:46.951Z,99.90
2018-07-05T08:02:14.624Z,99.90
2018-07-05T08:04:42.275Z,99.90
2018-07-05T08:07:10.116Z,99.90
2018-07-05T08:09:37.857Z,99.90
2018-07-05T08:12:05.521Z,99.90
2018-07-05T08:14:33.189Z,99.90
2018-07-05T08:17:00.856Z,99.90
2018-07-05T08:19:28.519Z,99.90
2018-07-05T08:21:56.182Z,99.90
2018-07-05T08:24:23.839Z,99.90
2018-07-05T08:26:51.592Z,99.90
2018-07-05T08:29:19.249Z,99.90
2018-07-05T08:31:46.916Z,99.90
2018-07-05T08:34:14.583Z,99.90
2018-07-05T08:36:42.262Z,99.90
2018-07-05T08:39:09.916Z,99.90
2018-07-05T08:44:05.517Z,99.90
2018-07-05T08:46:33.249Z,99.90
2018-07-05T08:49:00.917Z,99.90
2018-07-05T08:51:28.571Z,99.90
2018-07-05T08:53:56.252Z,99.90
2018-07-05T08:56:23.912Z,99.90
2018-07-05T08:58:51.584Z,99.30
2018-07-05T09:01:19.385Z,99.00
2018-07-05T09:03:47.365Z,99.90
2018-07-05T09:06:15.033Z,98.60
2018-07-05T09:08:42.724Z,1.00
2018-07-05T09:11:10.424Z,99.90
2018-07-05T09:13:38.209Z,99.90
2018-07-05T09:18:33.873Z,1.00
2018-07-05T09:21:01.540Z,1.00
2018-07-05T09:23:29.354Z,1.00
2018-07-05T09:25:56.885Z,99.90
2018-07-05T09:28:24.561Z,99.90
2018-07-05T09:30:52.220Z,1.00
2018-07-05T09:33:19.884Z,1.00
2018-07-05T09:35:47.552Z,1.00
2018-07-05T09:38:15.225Z,1.00
2018-07-05T09:40:42.880Z,99.90
2018-07-05T09:43:10.556Z,1.00
2018-07-05T09:45:38.216Z,99.90
2018-07-05T09:48:05.889Z,99.90
2018-07-05T09:50:33.552Z,99.90
2018-07-05T09:53:01.211Z,99.90
2018-07-05T09:55:28.911Z,99.90
2018-07-05T09:57:56.610Z,99.90
2018-07-05T10:00:29.600Z,99.90
2018-07-05T10:02:57.264Z,99.90
2018-07-05T10:05:24.959Z,63.10
2018-07-05T10:07:52.628Z,25.60
2018-07-05T10:10:20.288Z,1.00
2018-07-05T10:12:47.959Z,1.00
2018-07-05T10:15:15.621Z,1.00
2018-07-05T10:17:43.275Z,1.00
2018-07-05T10:20:11.026Z,1.00
2018-07-05T10:22:38.727Z,1.00
2018-07-05T10:25:06.389Z,1.00
2018-07-05T10:27:34.044Z,1.00
2018-07-05T10:30:20.369Z,1.00
2018-07-05T10:33:06.850Z,1.00
2018-07-05T10:35:34.511Z,1.00
2018-07-05T10:38:03.232Z,1.00
2018-07-05T10:40:49.559Z,1.00
2018-07-05T10:43:35.754Z,1.00
2018-07-05T10:46:22.074Z,99.90
2018-07-05T10:49:08.295Z,99.90
2018-07-05T10:51:54.777Z,99.90
2018-07-05T10:54:41.047Z,99.90
2018-07-05T10:57:27.372Z,99.90
2018-07-05T11:00:13.851Z,99.90
2018-07-05T11:03:00.163Z,99.90
2018-07-05T11:05:46.744Z,99.90
2018-07-05T11:11:13.165Z,46.60
2018-07-05T11:13:59.419Z,25.50
2018-07-05T11:16:45.716Z,3.50
2018-07-05T11:19:31.803Z,99.90
2018-07-05T11:22:18.073Z,99.90
2018-07-05T11:25:04.333Z,99.90
2018-07-05T11:27:50.974Z,99.90
2018-07-05T11:30:38.236Z,99.90
2018-07-05T11:33:24.608Z,99.90
2018-07-05T11:36:10.936Z,81.30
2018-07-05T11:38:57.329Z,31.20
2018-07-05T11:41:43.577Z,9.60
2018-07-05T11:44:29.991Z,1.00
2018-07-05T11:47:16.345Z,8.90
2018-07-05T11:50:02.606Z,2.10
2018-07-05T11:52:49.016Z,1.00
2018-07-05T11:55:35.412Z,1.00
2018-07-05T11:58:21.615Z,1.00
2018-07-05T12:01:07.832Z,1.00
2018-07-05T12:03:54.230Z,1.00
2018-07-05T12:06:40.733Z,1.00
2018-07-05T12:09:27.015Z,1.00
2018-07-05T12:12:13.459Z,1.00
2018-07-05T12:14:59.667Z,1.00
2018-07-05T12:17:46.048Z,1.00
2018-07-05T12:20:32.531Z,1.00
2018-07-05T12:23:19.409Z,1.00
2018-07-05T12:26:05.894Z,1.00
2018-07-05T12:28:52.271Z,1.00
2018-07-05T12:31:38.777Z,1.00
2018-07-05T12:34:25.172Z,1.00
2018-07-05T12:37:11.601Z,1.00
2018-07-05T12:39:57.824Z,1.00
2018-07-05T12:42:44.204Z,1.00
2018-07-05T12:45:30.455Z,1.00
2018-07-05T12:48:16.757Z,1.00
2018-07-05T12:51:03.063Z,1.00
2018-07-05T12:53:49.439Z,1.00
2018-07-05T12:56:35.857Z,1.00
2018-07-05T12:59:22.171Z,1.00
2018-07-05T13:02:08.660Z,1.00
2018-07-05T13:04:55.070Z,1.00
2018-07-05T13:07:41.468Z,85.80
2018-07-05T13:10:27.773Z,99.90
2018-07-05T13:13:14.196Z,99.90
2018-07-05T13:16:00.513Z,96.50
2018-07-05T13:21:27.395Z,1.00
2018-07-05T13:24:13.712Z,99.90
2018-07-05T13:27:00.078Z,1.00
2018-07-05T13:29:46.411Z,99.90
2018-07-05T13:32:32.806Z,84.10
2018-07-05T13:35:19.208Z,99.90
2018-07-05T13:38:05.472Z,1.00
2018-07-05T13:40:51.776Z,99.90
2018-07-05T13:43:38.207Z,1.00
2018-07-05T13:46:24.611Z,1.00
2018-07-05T13:49:10.895Z,1.00
2018-07-05T13:51:57.215Z,1.00
2018-07-05T13:54:43.550Z,1.00
2018-07-05T13:57:29.849Z,1.00
2018-07-05T14:00:16.145Z,1.00
2018-07-05T14:03:02.413Z,1.00
2018-07-05T14:05:48.826Z,2.10
2018-07-05T14:08:35.263Z,2.40
2018-07-05T14:11:21.658Z,5.70
2018-07-05T14:16:48.218Z,16.70
2018-07-05T14:19:34.523Z,17.20
2018-07-05T14:22:20.981Z,16.70
2018-07-05T14:25:07.590Z,18.30
2018-07-05T14:27:53.993Z,33.60
2018-07-05T14:30:40.360Z,39.90
2018-07-05T14:33:26.692Z,57.20
2018-07-05T14:36:13.071Z,69.90
2018-07-05T14:38:59.581Z,73.10
2018-07-05T14:41:46.029Z,86.50
2018-07-05T14:44:32.331Z,94.00
2018-07-05T14:47:18.535Z,93.50
2018-07-05T14:50:04.920Z,96.60
2018-07-05T14:52:51.168Z,99.90
2018-07-05T14:55:37.667Z,99.90
2018-07-05T14:58:23.997Z,99.90
2018-07-05T15:01:10.362Z,99.90
2018-07-05T15:03:56.970Z,99.90
2018-07-05T15:06:43.222Z,99.90
2018-07-05T15:09:29.530Z,99.90
2018-07-05T15:14:56.379Z,99.90
2018-07-05T15:17:42.896Z,99.90
2018-07-05T15:20:29.302Z,99.90
2018-07-05T15:23:15.633Z,99.90
2018-07-05T15:26:01.984Z,99.90
2018-07-05T15:28:48.480Z,99.90
2018-07-05T15:31:34.841Z,99.90
2018-07-05T15:34:21.166Z,99.90
2018-07-05T15:37:07.616Z,99.90
2018-07-05T15:39:53.971Z,99.90
2018-07-05T15:42:40.325Z,99.90
2018-07-05T15:45:26.829Z,99.90
2018-07-05T15:48:13.260Z,99.90
2018-07-05T15:50:59.355Z,99.90
2018-07-05T15:53:45.844Z,99.90
2018-07-05T15:56:32.072Z,99.90
2018-07-05T23:09:22.819Z,99.90
2018-07-05T23:12:09.272Z,99.90
2018-07-05T23:14:55.647Z,99.90
2018-07-05T23:17:42.168Z,99.90
2018-07-05T23:20:28.917Z,99.90
2018-07-05T23:23:15.228Z,99.90
2018-07-05T23:28:42.082Z,99.90
2018-07-05T23:31:28.635Z,99.90
2018-07-05T23:34:15.014Z,99.90
2018-07-05T23:37:01.435Z,99.90
2018-07-05T23:39:47.996Z,99.90
2018-07-05T23:45:14.710Z,99.90
2018-07-05T23:48:01.241Z,99.90
2018-07-05T23:50:47.679Z,99.90
2018-07-05T23:53:34.010Z,99.90
2018-07-05T23:56:20.396Z,99.90
2018-07-05T23:59:06.816Z,99.90
